createdAt,value
2023-05-15T00:00:17.628Z,14.98
2023-05-15T00:02:44.220Z,14.73
2023-05-15T00:05:11.189Z,15.68
2023-05-15T00:07:38.261Z,15.77
2023-05-15T00:10:05.661Z,15.45
2023-05-15T00:12:33.574Z,16.30
2023-05-15T00:15:00.174Z,15.13
2023-05-15T00:17:26.753Z,15.70
2023-05-15T00:19:53.328Z,15.98
2023-05-15T00:22:19.853Z,14.15
2023-05-15T00:24:46.425Z,15.52
2023-05-15T00:27:12.955Z,15.18
2023-05-15T00:29:40.840Z,15.35
2023-05-15T00:32:07.803Z,15.18
2023-05-15T00:34:34.290Z,15.85
2023-05-15T00:37:00.813Z,15.45
2023-05-15T00:39:27.365Z,15.32
2023-05-15T00:41:54.898Z,15.38
2023-05-15T00:44:21.641Z,14.98
2023-05-15T00:46:50.853Z,15.68
2023-05-15T00:49:19.313Z,14.35
2023-05-15T00:51:45.788Z,16.73
2023-05-15T00:54:12.342Z,14.90
2023-05-15T00:56:40.260Z,15.10
2023-05-15T00:59:08.058Z,15.23
2023-05-15T01:01:35.023Z,14.93
2023-05-15T01:04:03.602Z,14.35
2023-05-15T01:06:30.669Z,16.73
2023-05-15T01:09:00.321Z,14.65
2023-05-15T01:11:28.725Z,15.25
2023-05-15T01:13:55.248Z,15.13
2023-05-15T01:16:22.004Z,15.57
2023-05-15T01:18:48.610Z,14.45
2023-05-15T01:21:55.521Z,15.70
2023-05-15T01:24:42.753Z,14.02
2023-05-15T01:27:30.144Z,14.75
2023-05-15T01:30:02.708Z,15.57
2023-05-15T01:32:38.116Z,14.65
2023-05-15T01:35:13.275Z,15.60
2023-05-15T01:37:44.244Z,14.80
2023-05-15T01:40:14.531Z,14.40
2023-05-15T01:42:50.603Z,15.30
2023-05-15T01:45:18.190Z,14.95
2023-05-15T01:47:46.293Z,14.35
2023-05-15T01:50:15.233Z,15.85
2023-05-15T01:52:44.981Z,15.13
2023-05-15T01:55:14.279Z,15.70
2023-05-15T01:57:43.215Z,14.07
2023-05-15T02:00:11.421Z,14.75
2023-05-15T02:02:38.375Z,13.50
2023-05-15T02:05:06.566Z,14.38
2023-05-15T02:07:34.411Z,14.57
2023-05-15T02:10:02.985Z,14.82
2023-05-15T02:12:31.048Z,14.90
2023-05-15T02:14:59.960Z,14.93
2023-05-15T02:17:27.264Z,15.88
2023-05-15T02:19:53.803Z,15.73
2023-05-15T02:22:20.337Z,14.52
2023-05-15T02:24:46.896Z,15.40
2023-05-15T02:27:19.861Z,14.88
2023-05-15T02:29:55.076Z,16.33
2023-05-15T02:32:31.052Z,16.23
2023-05-15T02:35:06.522Z,15.55
2023-05-15T02:37:38.355Z,15.60
2023-05-15T02:40:10.100Z,16.95
2023-05-15T02:42:37.032Z,15.95
2023-05-15T02:45:05.308Z,15.45
2023-05-15T02:47:33.883Z,16.85
2023-05-15T02:50:01.329Z,16.85
2023-05-15T02:52:27.897Z,15.95
2023-05-15T02:54:54.400Z,17.13
2023-05-15T02:57:20.956Z,16.98
2023-05-15T02:59:47.521Z,16.65
2023-05-15T03:02:14.028Z,17.27
2023-05-15T03:04:42.000Z,16.35
2023-05-15T03:07:08.556Z,16.02
2023-05-15T03:09:35.083Z,16.75
2023-05-15T03:12:01.588Z,17.58
2023-05-15T03:14:28.172Z,16.20
2023-05-15T03:16:54.725Z,17.38
2023-05-15T03:19:21.275Z,16.98
2023-05-15T03:21:49.105Z,16.52
2023-05-15T03:24:15.567Z,17.60
2023-05-15T03:26:42.050Z,17.33
2023-05-15T03:29:08.587Z,16.50
2023-05-15T03:31:35.182Z,18.23
2023-05-15T03:34:01.730Z,17.17
2023-05-15T03:36:28.276Z,17.25
2023-05-15T03:38:56.126Z,17.88
2023-05-15T03:41:22.687Z,18.92
2023-05-15T03:43:49.216Z,18.55
2023-05-15T03:46:15.835Z,18.08
2023-05-15T03:48:42.396Z,19.45
2023-05-15T03:51:08.987Z,17.92
2023-05-15T03:53:35.573Z,18.50
2023-05-15T03:56:03.666Z,19.25
2023-05-15T03:58:30.177Z,19.30
2023-05-15T04:00:56.750Z,18.20
2023-05-15T04:03:23.318Z,19.20
2023-05-15T04:05:49.923Z,19.70
2023-05-15T04:08:16.483Z,19.88
2023-05-15T04:10:43.028Z,19.88
2023-05-15T04:13:10.942Z,20.20
2023-05-15T04:15:37.538Z,20.10
2023-05-15T04:18:04.191Z,20.25
2023-05-15T04:20:31.187Z,20.13
2023-05-15T04:22:57.727Z,20.48
2023-05-15T04:25:24.676Z,20.52
2023-05-15T04:27:51.371Z,20.67
2023-05-15T04:30:19.203Z,21.42
2023-05-15T04:32:45.808Z,19.40
2023-05-15T04:35:12.471Z,19.73
2023-05-15T04:37:39.845Z,21.02
2023-05-15T04:40:07.365Z,21.00
2023-05-15T04:42:33.938Z,22.30
2023-05-15T04:45:00.558Z,22.13
2023-05-15T04:47:28.464Z,22.52
2023-05-15T04:49:55.095Z,21.58
2023-05-15T04:52:21.645Z,21.42
2023-05-15T04:54:48.153Z,22.15
2023-05-15T04:57:14.818Z,20.67
2023-05-15T04:59:41.535Z,23.45
2023-05-15T05:02:09.661Z,22.90
2023-05-15T05:04:37.549Z,22.73
2023-05-15T05:07:04.460Z,21.85
2023-05-15T05:09:31.022Z,24.00
2023-05-15T05:11:58.973Z,26.13
2023-05-15T05:14:27.173Z,25.10
2023-05-15T05:16:53.713Z,24.95
2023-05-15T05:19:20.324Z,24.45
2023-05-15T05:21:48.234Z,25.63
2023-05-15T05:24:14.776Z,24.58
2023-05-15T05:26:43.443Z,25.45
2023-05-15T05:29:09.977Z,24.92
2023-05-15T05:31:36.715Z,27.15
2023-05-15T05:34:03.251Z,27.85
2023-05-15T05:36:29.776Z,25.35
2023-05-15T05:38:57.638Z,25.33
2023-05-15T05:41:24.133Z,26.27
2023-05-15T05:43:50.639Z,25.90
2023-05-15T05:46:17.172Z,25.10
2023-05-15T05:48:43.699Z,24.77
2023-05-15T05:51:10.276Z,26.52
2023-05-15T05:53:37.654Z,27.63
2023-05-15T05:56:07.861Z,26.33
2023-05-15T05:58:34.499Z,26.40
2023-05-15T06:01:01.261Z,26.20
2023-05-15T06:03:28.378Z,26.50
2023-05-15T06:05:54.978Z,25.88
2023-05-15T06:08:21.547Z,24.60
2023-05-15T06:10:48.095Z,24.70
2023-05-15T06:13:15.946Z,24.67
2023-05-15T06:15:42.533Z,23.85
2023-05-15T06:18:09.210Z,24.90
2023-05-15T06:20:35.968Z,25.38
2023-05-15T06:23:02.478Z,26.73
2023-05-15T06:25:28.989Z,24.80
2023-05-15T06:27:55.506Z,25.77
2023-05-15T06:30:23.596Z,25.50
2023-05-15T06:32:50.311Z,25.35
2023-05-15T06:35:16.930Z,24.17
2023-05-15T06:37:43.464Z,26.08
2023-05-15T06:40:10.860Z,25.48
2023-05-15T06:42:37.352Z,26.50
2023-05-15T06:45:04.771Z,24.60
2023-05-15T06:47:32.660Z,23.40
2023-05-15T06:49:59.253Z,25.00
2023-05-15T06:52:25.926Z,25.05
2023-05-15T06:54:52.529Z,25.80
2023-05-15T06:57:19.393Z,24.98
2023-05-15T06:59:45.862Z,25.65
2023-05-15T07:02:12.567Z,25.00
2023-05-15T07:04:40.689Z,25.48
2023-05-15T07:07:07.324Z,25.65
2023-05-15T07:09:33.874Z,23.80
2023-05-15T07:12:00.390Z,25.38
2023-05-15T07:14:27.042Z,24.58
2023-05-15T07:16:53.621Z,27.30
2023-05-15T07:19:20.185Z,27.60
2023-05-15T07:21:48.144Z,27.20
2023-05-15T07:24:14.684Z,28.70
2023-05-15T07:26:50.660Z,26.67
2023-05-15T07:29:25.185Z,26.90
2023-05-15T07:31:51.767Z,26.92
2023-05-15T07:34:18.343Z,28.05
2023-05-15T07:36:44.898Z,27.85
2023-05-15T07:39:12.750Z,26.65
2023-05-15T07:41:39.291Z,27.60
2023-05-15T07:44:05.774Z,26.98
2023-05-15T07:46:33.465Z,26.23
2023-05-15T07:48:59.964Z,26.67
2023-05-15T07:51:26.492Z,25.52
2023-05-15T07:53:52.959Z,23.42
2023-05-15T07:56:20.939Z,24.70
2023-05-15T07:58:47.446Z,25.00
2023-05-15T08:01:13.985Z,25.05
2023-05-15T08:03:40.620Z,25.27
2023-05-15T08:06:07.283Z,26.38
2023-05-15T08:08:33.839Z,26.48
2023-05-15T08:11:00.353Z,26.60
2023-05-15T08:13:28.241Z,25.20
2023-05-15T08:15:54.737Z,24.67
2023-05-15T08:18:21.290Z,25.23
2023-05-15T08:20:47.817Z,25.10
2023-05-15T08:23:14.326Z,25.27
2023-05-15T08:25:40.959Z,25.85
2023-05-15T08:28:07.477Z,25.70
2023-05-15T08:30:35.278Z,26.15
2023-05-15T08:33:01.851Z,26.00
2023-05-15T08:35:28.634Z,22.80
2023-05-15T08:37:55.376Z,25.25
2023-05-15T08:40:31.103Z,26.05
2023-05-15T08:43:10.389Z,26.10
2023-05-15T08:45:38.598Z,25.58
2023-05-15T08:48:10.813Z,24.70
2023-05-15T08:50:38.903Z,24.25
2023-05-15T08:53:05.534Z,24.70
2023-05-15T08:55:32.331Z,23.83
2023-05-15T08:57:59.821Z,21.58
2023-05-15T09:00:26.358Z,22.80
2023-05-15T09:02:54.897Z,25.55
2023-05-15T09:05:21.508Z,23.60
2023-05-15T09:07:49.050Z,21.95
2023-05-15T09:10:16.337Z,24.88
2023-05-15T09:12:44.105Z,23.83
2023-05-15T09:15:12.832Z,22.98
2023-05-15T09:17:40.268Z,22.40
2023-05-15T09:20:24.942Z,23.17
2023-05-15T09:22:51.485Z,22.00
2023-05-15T09:25:32.463Z,23.25
2023-05-15T09:27:59.502Z,20.77
2023-05-15T09:30:26.525Z,21.10
2023-05-15T09:32:53.708Z,21.17
2023-05-15T09:35:33.741Z,19.90
2023-05-15T09:38:01.137Z,20.83
2023-05-15T09:40:31.268Z,20.80
2023-05-15T09:42:58.175Z,19.90
2023-05-15T09:45:25.589Z,20.35
2023-05-15T09:47:52.825Z,20.00
2023-05-15T09:50:21.119Z,18.58
2023-05-15T09:52:49.499Z,19.52
2023-05-15T09:55:16.694Z,18.02
2023-05-15T09:57:43.454Z,20.02
2023-05-15T10:00:11.552Z,16.98
2023-05-15T10:02:40.954Z,18.85
2023-05-15T10:05:08.324Z,17.17
2023-05-15T10:07:36.223Z,14.38
2023-05-15T10:10:05.115Z,16.08
2023-05-15T10:12:32.027Z,16.08
2023-05-15T10:14:59.583Z,17.65
2023-05-15T10:17:27.816Z,18.45
2023-05-15T10:19:59.111Z,16.33
2023-05-15T10:22:29.374Z,15.23
2023-05-15T10:25:02.601Z,16.13
2023-05-15T10:27:30.748Z,16.50
2023-05-15T10:29:58.563Z,14.90
2023-05-15T10:32:26.554Z,14.35
2023-05-15T10:34:54.441Z,15.02
2023-05-15T10:37:21.724Z,15.52
2023-05-15T10:39:49.676Z,15.40
2023-05-15T10:42:17.000Z,16.23
2023-05-15T10:44:44.916Z,16.02
2023-05-15T10:47:11.631Z,17.67
2023-05-15T10:49:38.780Z,17.55
2023-05-15T10:52:06.208Z,17.48
2023-05-15T10:54:32.863Z,18.90
2023-05-15T10:56:59.452Z,20.20
2023-05-15T10:59:32.806Z,19.73
2023-05-15T11:02:19.674Z,18.63
2023-05-15T11:04:46.647Z,17.67
2023-05-15T11:07:15.424Z,17.00
2023-05-15T11:09:42.301Z,18.30
2023-05-15T11:12:09.663Z,18.45
2023-05-15T11:14:38.251Z,18.90
2023-05-15T11:17:06.565Z,19.33
2023-05-15T11:19:37.153Z,19.15
2023-05-15T11:22:17.101Z,20.02
2023-05-15T11:24:51.820Z,19.25
2023-05-15T11:27:19.766Z,20.88
2023-05-15T11:30:23.520Z,21.38
2023-05-15T11:32:52.410Z,20.15
2023-05-15T11:35:22.642Z,19.70
2023-05-15T11:37:50.438Z,19.88
2023-05-15T11:40:20.467Z,20.25
2023-05-15T11:42:59.802Z,19.35
2023-05-15T11:45:27.904Z,18.13
2023-05-15T11:47:54.545Z,19.75
2023-05-15T11:50:23.314Z,19.15
2023-05-15T11:52:50.580Z,18.17
2023-05-15T11:55:19.045Z,17.50
2023-05-15T11:57:46.004Z,20.38
2023-05-15T12:00:13.348Z,18.33
2023-05-15T12:02:40.121Z,18.67
2023-05-15T12:05:07.225Z,16.50
2023-05-15T12:07:38.182Z,17.58
2023-05-15T12:10:05.491Z,17.55
2023-05-15T12:12:32.103Z,16.25
2023-05-15T12:15:00.321Z,16.25
2023-05-15T12:17:26.884Z,15.70
2023-05-15T12:19:55.768Z,15.18
2023-05-15T12:22:22.269Z,15.48
2023-05-15T12:24:50.197Z,16.45
2023-05-15T12:27:16.808Z,15.18
2023-05-15T12:29:43.508Z,15.43
2023-05-15T12:32:10.685Z,15.27
2023-05-15T12:34:37.466Z,15.23
2023-05-15T12:37:04.164Z,15.57
2023-05-15T12:39:30.738Z,16.63
2023-05-15T12:41:59.348Z,16.95
2023-05-15T12:44:26.111Z,17.70
2023-05-15T12:46:54.418Z,18.98
2023-05-15T12:49:21.625Z,21.10
2023-05-15T12:51:48.192Z,21.25
2023-05-15T12:54:18.497Z,22.25
2023-05-15T12:56:45.256Z,21.83
2023-05-15T12:59:13.515Z,22.30
2023-05-15T13:01:40.838Z,21.23
2023-05-15T13:04:08.870Z,21.80
2023-05-15T13:06:45.871Z,19.63
2023-05-15T13:09:13.835Z,20.48
2023-05-15T13:11:43.419Z,19.80
2023-05-15T13:14:09.934Z,20.75
2023-05-15T13:16:37.987Z,24.60
2023-05-15T13:19:04.653Z,26.38
2023-05-15T13:21:31.302Z,28.75
2023-05-15T13:23:57.819Z,28.33
2023-05-15T13:26:24.296Z,26.35
2023-05-15T13:28:50.822Z,27.10
2023-05-15T13:31:17.601Z,28.05
2023-05-15T13:33:45.637Z,26.58
2023-05-15T13:36:12.474Z,28.23
2023-05-15T13:38:39.014Z,26.67
2023-05-15T13:41:05.869Z,27.50
2023-05-15T13:43:32.441Z,27.13
2023-05-15T13:45:59.008Z,26.48
2023-05-15T13:48:25.559Z,24.35
2023-05-15T13:50:53.464Z,24.38
2023-05-15T13:53:20.014Z,24.00
2023-05-15T13:55:46.924Z,24.77
2023-05-15T13:58:13.949Z,25.15
2023-05-15T14:00:43.183Z,24.13
2023-05-15T14:03:11.255Z,23.60
2023-05-15T14:05:39.194Z,23.63
2023-05-15T14:08:07.226Z,23.38
2023-05-15T14:10:33.882Z,21.92
2023-05-15T14:13:01.053Z,23.58
2023-05-15T14:15:27.684Z,21.77
2023-05-15T14:17:54.270Z,22.77
2023-05-15T14:20:20.854Z,22.92
2023-05-15T14:22:47.388Z,22.13
2023-05-15T14:25:15.206Z,23.20
2023-05-15T14:27:41.721Z,21.52
2023-05-15T14:30:09.249Z,21.63
2023-05-15T14:32:35.823Z,22.98
2023-05-15T14:35:02.537Z,21.63
2023-05-15T14:37:29.064Z,21.75
2023-05-15T14:39:55.609Z,20.83
2023-05-15T14:42:23.567Z,20.48
2023-05-15T14:44:50.047Z,21.73
2023-05-15T14:47:16.586Z,20.50
2023-05-15T14:49:43.094Z,20.40
2023-05-15T14:52:11.265Z,22.23
2023-05-15T14:54:39.009Z,22.23
2023-05-15T14:57:06.221Z,21.33
2023-05-15T14:59:34.444Z,21.13
2023-05-15T15:02:01.290Z,19.88
2023-05-15T15:04:27.971Z,18.33
2023-05-15T15:06:54.659Z,18.65
2023-05-15T15:09:21.539Z,17.25
2023-05-15T15:11:48.281Z,15.10
2023-05-15T15:14:14.800Z,16.15
2023-05-15T15:16:42.874Z,13.68
2023-05-15T15:19:09.565Z,13.75
2023-05-15T15:21:36.147Z,12.90
2023-05-15T15:24:02.820Z,10.57
2023-05-15T15:26:29.511Z,9.55
2023-05-15T15:28:56.073Z,7.50
2023-05-15T15:31:22.827Z,7.10
2023-05-15T15:33:50.826Z,6.40
2023-05-15T15:36:17.363Z,6.60
2023-05-15T15:38:43.919Z,5.93
2023-05-15T15:41:10.476Z,6.55
2023-05-15T15:43:37.068Z,5.55
2023-05-15T15:46:03.721Z,5.75
2023-05-15T15:48:30.271Z,5.50
2023-05-15T15:50:58.172Z,5.50
2023-05-15T15:53:25.868Z,4.78
2023-05-15T15:55:52.429Z,5.45
2023-05-15T15:58:18.982Z,5.18
2023-05-15T16:00:45.590Z,4.95
2023-05-15T16:03:12.263Z,4.75
2023-05-15T16:05:38.865Z,4.13
2023-05-15T16:08:06.872Z,4.60
2023-05-15T16:10:33.533Z,4.03
2023-05-15T16:13:00.095Z,3.55
2023-05-15T16:15:26.583Z,4.07
2023-05-15T16:17:54.347Z,4.57
2023-05-15T16:20:21.725Z,3.55
2023-05-15T16:22:48.414Z,3.60
2023-05-15T16:25:16.393Z,3.28
2023-05-15T16:27:43.072Z,3.80
2023-05-15T16:30:10.675Z,3.38
2023-05-15T16:32:37.655Z,3.65
2023-05-15T16:35:05.396Z,3.30
2023-05-15T16:37:31.920Z,2.90
2023-05-15T16:39:58.702Z,3.05
2023-05-15T16:42:26.607Z,3.28
2023-05-15T16:44:53.097Z,2.75
2023-05-15T16:47:19.599Z,2.78
2023-05-15T16:49:48.370Z,2.33
2023-05-15T16:52:16.428Z,2.30
2023-05-15T16:54:43.093Z,2.10
2023-05-15T16:57:09.712Z,2.58
2023-05-15T16:59:37.587Z,1.98
2023-05-15T17:02:04.635Z,2.92
2023-05-15T17:04:33.082Z,3.13
2023-05-15T17:06:59.861Z,2.75
2023-05-15T17:09:26.411Z,2.22
2023-05-15T17:11:52.922Z,2.80
2023-05-15T17:14:19.466Z,2.63
2023-05-15T17:16:47.391Z,2.97
2023-05-15T17:19:14.235Z,2.10
2023-05-15T17:21:41.025Z,2.22
2023-05-15T17:24:07.695Z,1.88
2023-05-15T17:26:34.294Z,2.00
2023-05-15T17:29:00.846Z,1.90
2023-05-15T17:31:27.497Z,1.73
2023-05-15T17:33:55.409Z,1.75
2023-05-15T17:36:21.965Z,1.73
2023-05-15T17:38:48.484Z,1.40
2023-05-15T17:41:15.001Z,2.35
2023-05-15T17:43:41.492Z,1.83
2023-05-15T17:46:08.056Z,1.45
2023-05-15T17:48:34.586Z,2.13
2023-05-15T17:51:02.495Z,1.80
2023-05-15T17:53:29.034Z,1.52
2023-05-15T17:55:55.550Z,1.33
2023-05-15T17:58:22.050Z,1.48
2023-05-15T18:00:48.644Z,1.35
2023-05-15T18:03:15.220Z,1.50
2023-05-15T18:05:41.863Z,1.05
2023-05-15T18:08:09.688Z,1.45
2023-05-15T18:10:36.193Z,1.50
2023-05-15T18:13:02.691Z,1.27
2023-05-15T18:15:29.423Z,1.25
2023-05-15T18:17:56.132Z,1.63
2023-05-15T18:20:22.974Z,1.30
2023-05-15T18:22:49.508Z,1.20
2023-05-15T18:25:17.603Z,1.30
2023-05-15T18:27:44.152Z,1.77
2023-05-15T18:30:11.285Z,1.25
2023-05-15T18:32:38.002Z,1.33
2023-05-15T18:35:05.007Z,1.73
2023-05-15T18:37:31.551Z,1.70
2023-05-15T18:39:58.133Z,1.27
2023-05-15T18:42:28.026Z,1.27
2023-05-15T18:44:54.597Z,1.23
2023-05-15T18:47:21.170Z,1.35
2023-05-15T18:49:47.688Z,1.65
2023-05-15T18:52:14.192Z,1.58
2023-05-15T18:54:41.064Z,1.23
2023-05-15T18:57:07.616Z,1.25
2023-05-15T18:59:35.462Z,1.40
2023-05-15T19:02:02.120Z,1.70
2023-05-15T19:04:28.663Z,1.35
2023-05-15T19:06:55.148Z,1.20
2023-05-15T19:09:21.680Z,1.67
2023-05-15T19:11:48.194Z,1.77
2023-05-15T19:14:15.057Z,1.60
2023-05-15T19:16:42.933Z,2.15
2023-05-15T19:19:09.651Z,1.90
2023-05-15T19:21:36.365Z,1.92
2023-05-15T19:24:02.987Z,2.35
2023-05-15T19:26:29.582Z,2.22
2023-05-15T19:28:56.105Z,2.30
2023-05-15T19:31:31.341Z,2.85
2023-05-15T19:34:00.201Z,2.63
2023-05-15T19:36:27.159Z,2.30
2023-05-15T19:38:53.708Z,1.83
2023-05-15T19:41:20.239Z,2.35
2023-05-15T19:43:46.725Z,2.28
2023-05-15T19:46:13.486Z,2.10
2023-05-15T19:48:40.084Z,2.17
2023-05-15T19:51:07.919Z,2.20
2023-05-15T19:53:34.612Z,2.38
2023-05-15T19:56:01.122Z,2.25
2023-05-15T19:58:27.714Z,3.13
2023-05-15T20:00:54.272Z,2.42
2023-05-15T20:03:21.208Z,2.50
2023-05-15T20:05:48.097Z,2.67
2023-05-15T20:08:15.977Z,2.35
2023-05-15T20:10:42.634Z,1.90
2023-05-15T20:13:09.263Z,2.75
2023-05-15T20:15:35.805Z,2.10
2023-05-15T20:18:02.356Z,2.38
2023-05-15T20:20:29.070Z,2.22
2023-05-15T20:22:55.826Z,2.60
2023-05-15T20:25:24.359Z,2.00
2023-05-15T20:27:50.989Z,2.08
2023-05-15T20:30:17.512Z,2.03
2023-05-15T20:32:44.087Z,2.35
2023-05-15T20:35:10.644Z,2.22
2023-05-15T20:37:37.149Z,2.17
2023-05-15T20:40:04.131Z,1.85
2023-05-15T20:42:31.988Z,1.40
2023-05-15T20:44:58.544Z,1.40
2023-05-15T20:47:25.123Z,1.85
2023-05-15T20:49:51.619Z,1.70
2023-05-15T20:52:18.105Z,1.83
2023-05-15T20:54:44.632Z,1.85
2023-05-15T20:57:11.183Z,3.50
2023-05-15T20:59:39.058Z,2.42
2023-05-15T21:02:05.593Z,1.75
2023-05-15T21:04:32.118Z,1.80
2023-05-15T21:06:58.705Z,1.98
2023-05-15T21:09:25.213Z,2.17
2023-05-15T21:11:51.742Z,3.10
2023-05-15T21:14:18.280Z,2.10
2023-05-15T21:16:46.299Z,1.98
2023-05-15T21:19:12.935Z,2.70
2023-05-15T21:21:39.558Z,2.13
2023-05-15T21:24:06.799Z,1.50
2023-05-15T21:26:33.326Z,1.95
2023-05-15T21:28:59.867Z,1.35
2023-05-15T21:31:26.770Z,1.30
2023-05-15T21:33:54.951Z,1.30
2023-05-15T21:36:21.855Z,1.15
2023-05-15T21:38:48.370Z,1.00
2023-05-15T21:41:14.924Z,0.80
2023-05-15T21:43:41.451Z,0.90
2023-05-15T21:46:07.972Z,0.90
2023-05-15T21:48:34.514Z,0.60
2023-05-15T21:51:02.325Z,0.80
2023-05-15T21:53:28.946Z,1.20
2023-05-15T21:55:58.139Z,0.40
2023-05-15T21:58:24.645Z,1.10
2023-05-15T22:00:51.201Z,0.45
2023-05-15T22:03:18.973Z,0.60
2023-05-15T22:05:45.748Z,0.50
2023-05-15T22:08:13.700Z,0.70
2023-05-15T22:10:40.208Z,1.00
2023-05-15T22:13:06.714Z,0.55
2023-05-15T22:15:33.200Z,0.40
2023-05-15T22:17:59.789Z,0.47
2023-05-15T22:20:26.483Z,0.50
2023-05-15T22:22:53.084Z,0.80
2023-05-15T22:25:21.056Z,0.50
2023-05-15T22:27:47.592Z,0.45
2023-05-15T22:30:14.268Z,0.50
2023-05-15T22:32:40.841Z,0.50
2023-05-15T22:35:08.694Z,0.50
2023-05-15T22:37:35.270Z,0.82
2023-05-15T22:40:02.156Z,0.60
2023-05-15T22:42:30.020Z,0.68
2023-05-15T22:44:56.523Z,0.75
2023-05-15T22:47:23.099Z,0.43
2023-05-15T22:49:49.668Z,0.65
2023-05-15T22:52:17.474Z,0.75
2023-05-15T22:54:44.047Z,0.60
2023-05-15T22:57:10.586Z,0.52
2023-05-15T22:59:38.931Z,0.75
2023-05-15T23:02:05.498Z,0.68
2023-05-15T23:04:32.096Z,0.70
2023-05-15T23:06:58.635Z,1.05
2023-05-15T23:09:25.232Z,1.15
2023-05-15T23:11:51.722Z,0.60
2023-05-15T23:14:18.237Z,0.95
2023-05-15T23:16:46.080Z,0.70
2023-05-15T23:19:12.627Z,0.93
2023-05-15T23:21:39.240Z,1.05
2023-05-15T23:24:06.327Z,1.15
2023-05-15T23:26:32.900Z,1.77
2023-05-15T23:28:59.468Z,1.10
2023-05-15T23:31:26.033Z,1.25
2023-05-15T23:33:54.036Z,0.70
2023-05-15T23:36:20.596Z,1.20
2023-05-15T23:38:47.100Z,1.08
2023-05-15T23:41:13.567Z,0.80
2023-05-15T23:43:40.076Z,1.00
2023-05-15T23:46:06.689Z,1.08
2023-05-15T23:48:33.277Z,1.33
2023-05-15T23:51:01.229Z,1.15
2023-05-15T23:53:27.739Z,1.48
2023-05-15T23:55:54.218Z,0.68
2023-05-15T23:58:20.707Z,1.15
